createdAt,value
2018-09-25T00:00:26.047Z,94.13
2018-09-25T00:01:26.027Z,93.98
2018-09-25T00:02:26.000Z,94.37
2018-09-25T00:03:25.989Z,94.37
2018-09-25T00:04:25.964Z,93.98
2018-09-25T00:05:25.940Z,94.17
2018-09-25T00:06:25.914Z,94.08
2018-09-25T00:07:25.894Z,94.17
2018-09-25T00:08:25.871Z,94.17
2018-09-25T00:09:25.852Z,93.79
2018-09-25T00:10:25.840Z,94.08
2018-09-25T00:11:25.808Z,93.93
2018-09-25T00:12:25.791Z,94.74
2018-09-25T00:13:25.767Z,94.46
2018-09-25T00:14:25.749Z,94.46
2018-09-25T00:15:25.725Z,94.56
2018-09-25T00:16:25.704Z,94.56
2018-09-25T00:17:25.682Z,94.46
2018-09-25T00:18:25.660Z,94.56
2018-09-25T00:19:25.639Z,94.84
2018-09-25T00:20:25.639Z,94.79
2018-09-25T00:21:25.596Z,94.79
2018-09-25T00:22:25.575Z,94.79
2018-09-25T00:23:25.552Z,94.51
2018-09-25T00:24:25.531Z,94.51
2018-09-25T00:25:25.508Z,94.60
2018-09-25T00:26:25.487Z,94.60
2018-09-25T00:27:25.467Z,94.56
2018-09-25T00:28:25.445Z,94.70
2018-09-25T00:29:25.424Z,94.56
2018-09-25T00:30:25.402Z,94.60
2018-09-25T00:31:25.380Z,94.41
2018-09-25T00:32:25.363Z,94.56
2018-09-25T00:33:25.363Z,94.46
2018-09-25T00:34:25.326Z,94.84
2018-09-25T00:35:25.299Z,94.46
2018-09-25T00:36:25.273Z,94.56
2018-09-25T00:37:25.251Z,94.74
2018-09-25T00:38:25.231Z,94.46
2018-09-25T00:39:25.208Z,94.74
2018-09-25T00:40:25.188Z,95.41
2018-09-25T00:41:25.169Z,95.12
2018-09-25T00:42:25.147Z,95.32
2018-09-25T00:43:25.124Z,95.60
2018-09-25T00:44:25.104Z,95.03
2018-09-25T00:45:25.081Z,94.93
2018-09-25T00:46:25.059Z,94.84
2018-09-25T00:47:25.040Z,95.41
2018-09-25T00:48:25.018Z,95.51
2018-09-25T00:49:24.996Z,95.60
2018-09-25T00:50:24.974Z,95.41
2018-09-25T00:51:24.953Z,95.41
2018-09-25T00:52:24.934Z,95.41
2018-09-25T00:53:24.911Z,95.32
2018-09-25T00:54:24.887Z,95.51
2018-09-25T00:55:24.865Z,95.70
2018-09-25T00:56:24.862Z,95.60
2018-09-25T00:57:24.827Z,95.70
2018-09-25T00:58:24.806Z,95.32
2018-09-25T00:59:24.783Z,95.41
2018-09-25T01:00:24.759Z,95.51
2018-09-25T01:01:24.737Z,95.79
2018-09-25T01:02:24.716Z,95.79
2018-09-25T01:03:24.719Z,95.79
2018-09-25T01:04:24.694Z,95.70
2018-09-25T01:05:24.652Z,95.41
2018-09-25T01:06:24.628Z,95.70
2018-09-25T01:07:24.607Z,95.32
2018-09-25T01:08:24.586Z,95.70
2018-09-25T01:09:24.563Z,95.60
2018-09-25T01:10:24.546Z,94.93
2018-09-25T01:11:24.520Z,94.74
2018-09-25T01:12:24.499Z,94.17
2018-09-25T01:13:24.477Z,94.74
2018-09-25T01:14:24.457Z,94.93
2018-09-25T01:15:24.433Z,95.41
2018-09-25T01:16:24.414Z,95.22
2018-09-25T01:17:24.391Z,95.32
2018-09-25T01:18:24.375Z,95.51
2018-09-25T01:19:24.347Z,95.51
2018-09-25T01:20:24.329Z,95.41
2018-09-25T01:21:24.309Z,95.51
2018-09-25T01:22:24.308Z,95.51
2018-09-25T01:23:24.268Z,95.60
2018-09-25T01:24:24.240Z,95.70
2018-09-25T01:25:24.255Z,95.60
2018-09-25T01:26:24.199Z,95.12
2018-09-25T01:27:24.178Z,95.03
2018-09-25T01:28:24.161Z,95.08
2018-09-25T01:29:24.132Z,95.51
2018-09-25T01:30:24.109Z,95.56
2018-09-25T01:31:24.089Z,95.46
2018-09-25T01:32:24.066Z,95.46
2018-09-25T01:33:24.046Z,95.46
2018-09-25T01:34:24.025Z,95.75
2018-09-25T01:35:24.002Z,95.75
2018-09-25T01:36:23.980Z,95.56
2018-09-25T01:37:23.962Z,95.36
2018-09-25T01:38:23.936Z,95.36
2018-09-25T01:39:23.917Z,95.56
2018-09-25T01:40:23.905Z,95.75
2018-09-25T01:41:23.875Z,95.46
2018-09-25T01:42:23.866Z,95.17
2018-09-25T01:43:23.828Z,95.56
2018-09-25T01:44:23.814Z,96.03
2018-09-25T01:45:23.784Z,95.46
2018-09-25T01:46:23.766Z,96.22
2018-09-25T01:47:23.741Z,96.12
2018-09-25T01:48:23.732Z,96.89
2018-09-25T01:49:23.695Z,96.70
2018-09-25T01:50:23.678Z,96.89
2018-09-25T01:51:23.657Z,96.22
2018-09-25T01:52:23.635Z,96.31
2018-09-25T01:53:23.610Z,96.41
2018-09-25T01:54:23.590Z,96.31
2018-09-25T01:55:23.566Z,96.51
2018-09-25T01:56:23.545Z,95.36
2018-09-25T01:57:23.522Z,95.46
2018-09-25T01:58:23.504Z,95.56
2018-09-25T01:59:23.480Z,95.36
2018-09-25T02:00:23.458Z,95.46
2018-09-25T02:01:23.436Z,95.56
2018-09-25T02:02:23.413Z,95.46
2018-09-25T02:03:23.392Z,95.65
2018-09-25T02:04:23.372Z,95.17
2018-09-25T02:05:23.348Z,95.36
2018-09-25T02:06:23.332Z,95.36
2018-09-25T02:07:23.305Z,95.17
2018-09-25T02:08:23.284Z,95.27
2018-09-25T02:09:23.260Z,95.46
2018-09-25T02:10:23.237Z,94.32
2018-09-25T02:11:23.234Z,94.79
2018-09-25T02:12:23.197Z,94.89
2018-09-25T02:13:23.175Z,95.46
2018-09-25T02:14:23.154Z,95.36
2018-09-25T02:15:23.129Z,95.65
2018-09-25T02:16:23.108Z,95.27
2018-09-25T02:17:23.085Z,95.65
2018-09-25T02:18:23.064Z,95.75
2018-09-25T02:19:23.047Z,95.46
2018-09-25T02:20:23.025Z,95.46
2018-09-25T02:21:22.997Z,95.56
2018-09-25T02:22:22.975Z,95.36
2018-09-25T02:23:22.953Z,95.46
2018-09-25T02:24:22.938Z,95.84
2018-09-25T02:25:22.916Z,95.36
2018-09-25T02:26:22.888Z,95.75
2018-09-25T02:27:22.867Z,95.27
2018-09-25T02:28:22.844Z,95.56
2018-09-25T02:29:22.822Z,95.46
2018-09-25T02:30:22.800Z,95.36
2018-09-25T02:31:22.784Z,95.84
2018-09-25T02:32:22.761Z,95.56
2018-09-25T02:33:22.734Z,95.36
2018-09-25T02:34:22.713Z,95.65
2018-09-25T02:35:22.690Z,95.46
2018-09-25T02:36:22.679Z,95.27
2018-09-25T02:37:22.645Z,95.56
2018-09-25T02:38:22.636Z,95.46
2018-09-25T02:39:22.603Z,95.65
2018-09-25T02:40:22.580Z,95.17
2018-09-25T02:41:22.557Z,95.65
2018-09-25T02:42:22.535Z,95.17
2018-09-25T02:43:22.521Z,95.56
2018-09-25T02:44:22.492Z,95.65
2018-09-25T02:45:22.487Z,95.65
2018-09-25T02:46:22.448Z,95.65
2018-09-25T02:47:22.428Z,95.46
2018-09-25T02:48:22.404Z,95.22
2018-09-25T02:49:22.385Z,95.27
2018-09-25T02:50:22.382Z,95.12
2018-09-25T02:51:22.351Z,95.70
2018-09-25T02:52:22.322Z,95.41
2018-09-25T02:53:22.292Z,95.70
2018-09-25T02:54:22.271Z,95.41
2018-09-25T02:55:22.249Z,95.51
2018-09-25T02:56:22.252Z,95.51
2018-09-25T02:57:22.215Z,95.60
2018-09-25T02:58:22.184Z,95.12
2018-09-25T02:59:22.168Z,95.46
2018-09-25T03:00:22.139Z,95.32
2018-09-25T03:01:22.152Z,95.12
2018-09-25T03:02:22.096Z,95.03
2018-09-25T03:03:22.079Z,94.74
2018-09-25T03:04:22.051Z,94.56
2018-09-25T03:05:22.033Z,94.56
2018-09-25T03:06:22.010Z,94.74
2018-09-25T03:07:21.987Z,95.22
2018-09-25T03:08:21.964Z,94.65
2018-09-25T03:09:21.943Z,94.56
2018-09-25T03:10:21.981Z,95.22
2018-09-25T03:11:21.896Z,95.79
2018-09-25T03:12:21.876Z,95.41
2018-09-25T03:13:21.852Z,95.51
2018-09-25T03:14:21.828Z,95.12
2018-09-25T03:15:21.817Z,95.51
2018-09-25T03:16:21.786Z,95.22
2018-09-25T03:17:21.763Z,95.32
2018-09-25T03:18:21.740Z,95.12
2018-09-25T03:19:21.773Z,95.32
2018-09-25T03:20:21.730Z,94.56
2018-09-25T03:21:21.674Z,94.65
2018-09-25T03:22:21.652Z,94.56
2018-09-25T03:23:21.638Z,94.56
2018-09-25T03:24:21.608Z,94.56
2018-09-25T03:25:21.585Z,94.93
2018-09-25T03:26:21.567Z,94.65
2018-09-25T03:27:21.540Z,95.03
2018-09-25T03:28:21.518Z,95.32
2018-09-25T03:29:21.496Z,95.41
2018-09-25T03:30:21.475Z,95.51
2018-09-25T03:31:21.456Z,96.55
2018-09-25T03:32:21.429Z,95.79
2018-09-25T03:33:21.407Z,96.26
2018-09-25T03:34:21.394Z,96.26
2018-09-25T03:35:21.364Z,95.41
2018-09-25T03:36:21.339Z,95.32
2018-09-25T03:37:21.318Z,94.84
2018-09-25T03:38:21.294Z,95.03
2018-09-25T03:39:21.274Z,95.22
2018-09-25T03:40:21.253Z,95.12
2018-09-25T03:41:21.271Z,95.70
2018-09-25T03:42:21.207Z,95.41
2018-09-25T03:43:21.184Z,95.32
2018-09-25T03:44:21.163Z,96.55
2018-09-25T03:45:21.139Z,96.74
2018-09-25T03:46:21.118Z,95.79
2018-09-25T03:47:21.094Z,95.51
2018-09-25T03:48:21.086Z,95.41
2018-09-25T03:49:21.050Z,95.51
2018-09-25T03:50:21.030Z,95.51
2018-09-25T03:51:21.006Z,95.60
2018-09-25T03:52:20.983Z,95.70
2018-09-25T03:53:20.959Z,95.03
2018-09-25T03:54:20.938Z,95.12
2018-09-25T03:55:20.924Z,94.65
2018-09-25T03:56:20.894Z,94.56
2018-09-25T03:57:20.870Z,94.56
2018-09-25T03:58:20.849Z,94.27
2018-09-25T03:59:20.827Z,94.46
2018-09-25T04:00:20.807Z,94.56
2018-09-25T04:01:20.784Z,94.27
2018-09-25T04:02:20.760Z,94.27
2018-09-25T04:03:20.791Z,93.79
2018-09-25T04:04:20.722Z,94.37
2018-09-25T04:05:20.707Z,94.37
2018-09-25T04:06:20.701Z,94.08
2018-09-25T04:07:20.653Z,95.32
2018-09-25T04:08:20.627Z,95.32
2018-09-25T04:09:20.612Z,95.41
2018-09-25T04:10:20.581Z,95.22
2018-09-25T04:11:20.566Z,94.60
2018-09-25T04:12:20.537Z,95.27
2018-09-25T04:13:20.514Z,95.08
2018-09-25T04:14:20.493Z,95.56
2018-09-25T04:15:20.470Z,95.36
2018-09-25T04:16:20.454Z,95.08
2018-09-25T04:17:20.429Z,95.41
2018-09-25T04:18:20.406Z,95.12
2018-09-25T04:19:20.380Z,95.41
2018-09-25T04:20:20.361Z,95.22
2018-09-25T04:21:20.335Z,95.32
2018-09-25T04:22:20.311Z,95.12
2018-09-25T04:23:20.290Z,95.22
2018-09-25T04:24:20.269Z,95.22
2018-09-25T04:25:20.248Z,94.56
2018-09-25T04:26:20.224Z,95.41
2018-09-25T04:27:20.199Z,95.32
2018-09-25T04:28:20.226Z,95.36
2018-09-25T04:29:20.154Z,95.36
2018-09-25T04:30:20.134Z,95.79
2018-09-25T04:31:20.113Z,94.93
2018-09-25T04:32:20.094Z,95.03
2018-09-25T04:33:20.066Z,94.56
2018-09-25T04:34:20.044Z,94.46
2018-09-25T04:35:20.024Z,94.65
2018-09-25T04:36:20.003Z,94.65
2018-09-25T04:37:19.976Z,94.56
2018-09-25T04:38:20.458Z,94.46
2018-09-25T04:39:19.942Z,94.27
2018-09-25T04:40:19.994Z,94.18
2018-09-25T04:41:19.886Z,94.32
2018-09-25T04:42:19.873Z,95.41
2018-09-25T04:43:19.840Z,95.17
2018-09-25T04:44:19.818Z,95.27
2018-09-25T04:45:19.795Z,94.51
2018-09-25T04:46:19.773Z,94.70
2018-09-25T04:47:19.750Z,94.56
2018-09-25T04:48:19.732Z,94.42
2018-09-25T04:49:19.705Z,94.42
2018-09-25T04:50:19.685Z,94.60
2018-09-25T04:51:19.661Z,94.70
2018-09-25T04:52:19.638Z,95.36
2018-09-25T04:53:19.624Z,94.98
2018-09-25T04:54:19.599Z,94.98
2018-09-25T04:55:19.583Z,94.98
2018-09-25T04:56:19.549Z,94.89
2018-09-25T04:57:19.527Z,94.51
2018-09-25T04:58:19.512Z,95.27
2018-09-25T04:59:19.498Z,95.36
2018-09-25T05:00:19.459Z,95.46
2018-09-25T05:01:19.446Z,95.36
2018-09-25T05:02:19.413Z,95.17
2018-09-25T05:03:19.390Z,95.08
2018-09-25T05:04:19.369Z,95.46
2018-09-25T05:05:19.354Z,95.46
2018-09-25T05:06:19.321Z,95.75
2018-09-25T05:07:19.300Z,95.17
2018-09-25T05:08:19.290Z,95.65
2018-09-25T05:09:19.257Z,95.36
2018-09-25T05:10:19.234Z,95.27
2018-09-25T05:11:19.212Z,95.46
2018-09-25T05:12:19.192Z,95.32
2018-09-25T05:13:19.167Z,95.46
2018-09-25T05:14:19.143Z,95.84
2018-09-25T05:15:19.121Z,95.46
2018-09-25T05:16:19.097Z,95.65
2018-09-25T05:17:19.095Z,95.36
2018-09-25T05:18:19.052Z,95.65
2018-09-25T05:19:19.031Z,95.65
2018-09-25T05:20:19.006Z,95.75
2018-09-25T05:21:18.983Z,95.32
2018-09-25T05:22:18.961Z,96.12
2018-09-25T05:23:18.988Z,96.03
2018-09-25T05:24:18.921Z,96.60
2018-09-25T05:25:18.895Z,97.27
2018-09-25T05:26:18.875Z,97.17
2018-09-25T05:27:18.849Z,96.98
2018-09-25T05:28:18.824Z,96.98
2018-09-25T05:29:18.803Z,96.89
2018-09-25T05:30:18.804Z,96.89
2018-09-25T05:31:18.762Z,97.36
2018-09-25T05:32:18.747Z,96.50
2018-09-25T05:33:18.715Z,96.50
2018-09-25T05:34:18.690Z,96.69
2018-09-25T05:35:18.667Z,96.89
2018-09-25T05:36:18.687Z,96.89
2018-09-25T05:37:18.620Z,98.03
2018-09-25T05:38:18.604Z,97.93
2018-09-25T05:39:18.585Z,98.12
2018-09-25T05:40:18.554Z,97.64
2018-09-25T05:41:18.529Z,97.64
2018-09-25T05:42:18.516Z,97.64
2018-09-25T05:43:18.490Z,97.93
2018-09-25T05:44:18.462Z,98.03
2018-09-25T05:45:18.442Z,97.83
2018-09-25T05:46:18.417Z,97.93
2018-09-25T05:47:18.395Z,97.83
2018-09-25T05:48:18.443Z,97.83
2018-09-25T05:49:18.348Z,98.03
2018-09-25T05:50:18.328Z,98.03
2018-09-25T05:51:18.304Z,97.74
2018-09-25T05:52:18.283Z,97.93
2018-09-25T05:53:18.258Z,97.93
2018-09-25T05:54:18.261Z,98.12
2018-09-25T05:55:18.216Z,98.03
2018-09-25T05:56:18.190Z,98.03
2018-09-25T05:57:18.168Z,98.31
2018-09-25T05:58:18.144Z,98.41
2018-09-25T05:59:18.121Z,98.69
2018-09-25T06:00:18.099Z,98.69
2018-09-25T06:01:18.075Z,98.41
2018-09-25T06:02:18.056Z,98.60
2018-09-25T06:03:18.040Z,98.60
2018-09-25T06:04:18.011Z,98.79
2018-09-25T06:05:17.986Z,98.60
2018-09-25T06:06:17.962Z,98.69
2018-09-25T06:07:17.940Z,98.88
2018-09-25T06:08:17.919Z,98.97
2018-09-25T06:09:17.953Z,99.55
2018-09-25T06:10:17.872Z,99.07
2018-09-25T06:11:17.851Z,99.64
2018-09-25T06:12:17.834Z,98.88
2018-09-25T06:13:17.804Z,99.55
2018-09-25T06:14:17.781Z,99.07
2018-09-25T06:15:17.758Z,99.16
2018-09-25T06:16:17.737Z,99.36
2018-09-25T06:17:17.713Z,99.36
2018-09-25T06:18:17.688Z,99.55
2018-09-25T06:19:17.672Z,99.36
2018-09-25T06:20:17.644Z,99.45
2018-09-25T06:21:17.624Z,99.36
2018-09-25T06:22:17.599Z,99.93
2018-09-25T06:23:17.576Z,99.64
2018-09-25T06:24:17.553Z,99.99
2018-09-25T06:25:17.538Z,99.45
2018-09-25T06:26:17.508Z,99.99
2018-09-25T06:27:17.493Z,99.79
2018-09-25T06:28:17.464Z,99.79
2018-09-25T06:29:17.445Z,99.99
2018-09-25T06:30:17.425Z,99.99
2018-09-25T06:31:17.393Z,99.88
2018-09-25T06:32:17.383Z,99.99
2018-09-25T06:33:17.349Z,99.69
2018-09-25T06:34:17.353Z,99.60
2018-09-25T06:35:17.317Z,99.98
2018-09-25T06:36:17.283Z,99.79
2018-09-25T06:37:17.311Z,99.98
2018-09-25T06:38:17.235Z,99.88
2018-09-25T06:39:17.214Z,99.99
2018-09-25T06:40:17.193Z,99.98
2018-09-25T06:41:17.181Z,99.99
2018-09-25T06:42:17.147Z,99.99
2018-09-25T06:43:17.122Z,99.99
2018-09-25T06:44:17.100Z,99.99
2018-09-25T06:45:17.076Z,99.99
2018-09-25T06:46:17.062Z,99.99
2018-09-25T06:47:17.057Z,99.99
2018-09-25T06:48:17.010Z,99.99
2018-09-25T06:49:16.988Z,99.99
2018-09-25T06:50:16.971Z,99.99
2018-09-25T06:51:16.941Z,99.99
2018-09-25T06:52:16.919Z,99.99
2018-09-25T06:53:16.898Z,99.99
2018-09-25T06:54:16.880Z,99.99
2018-09-25T06:55:16.930Z,99.99
2018-09-25T06:56:16.837Z,99.99
2018-09-25T06:57:16.806Z,99.99
2018-09-25T06:58:16.788Z,99.99
2018-09-25T06:59:16.762Z,99.99
2018-09-25T07:00:16.739Z,99.99
2018-09-25T07:01:16.723Z,99.99
2018-09-25T07:02:16.692Z,99.99
2018-09-25T07:03:16.671Z,99.99
2018-09-25T07:04:16.648Z,99.99
2018-09-25T07:05:16.632Z,99.99
2018-09-25T07:06:16.606Z,99.99
2018-09-25T07:07:16.582Z,99.99
2018-09-25T07:08:16.557Z,99.99
2018-09-25T07:09:16.535Z,99.99
2018-09-25T07:10:16.628Z,99.99
2018-09-25T07:11:16.490Z,99.99
2018-09-25T07:12:16.467Z,99.99
2018-09-25T07:13:16.445Z,99.99
2018-09-25T07:14:16.421Z,99.99
2018-09-25T07:15:16.400Z,99.99
2018-09-25T07:16:16.376Z,99.99
2018-09-25T07:17:16.354Z,99.99
2018-09-25T07:18:16.334Z,99.99
2018-09-25T07:19:16.311Z,99.99
2018-09-25T07:20:16.288Z,99.99
2018-09-25T07:21:16.265Z,99.99
2018-09-25T07:22:16.253Z,99.99
2018-09-25T07:23:16.220Z,99.99
2018-09-25T07:24:16.200Z,99.99
2018-09-25T07:25:16.176Z,99.99
2018-09-25T07:26:16.153Z,99.99
2018-09-25T07:27:16.132Z,99.99
2018-09-25T07:28:16.110Z,99.99
2018-09-25T07:29:16.089Z,99.99
2018-09-25T07:30:16.071Z,99.99
2018-09-25T07:31:16.043Z,99.99
2018-09-25T07:32:16.023Z,99.99
2018-09-25T07:33:15.998Z,99.99
2018-09-25T07:34:15.975Z,99.99
2018-09-25T07:35:15.957Z,99.99
2018-09-25T07:36:15.944Z,99.99
2018-09-25T07:37:15.909Z,99.99
2018-09-25T07:38:15.885Z,99.99
2018-09-25T07:39:15.865Z,99.99
2018-09-25T07:40:15.843Z,99.99
2018-09-25T07:41:15.822Z,99.99
2018-09-25T07:42:15.804Z,99.99
2018-09-25T07:43:15.781Z,99.99
2018-09-25T07:44:15.755Z,99.99
2018-09-25T07:45:15.730Z,99.99
2018-09-25T07:46:15.710Z,99.99
2018-09-25T07:47:15.701Z,99.99
2018-09-25T07:48:15.686Z,99.99
2018-09-25T07:49:15.643Z,99.99
2018-09-25T07:50:15.621Z,99.99
2018-09-25T07:51:15.601Z,99.99
2018-09-25T07:52:15.578Z,99.99
2018-09-25T07:53:15.556Z,99.46
2018-09-25T07:54:15.532Z,99.55
2018-09-25T07:55:15.509Z,99.99
2018-09-25T07:56:15.494Z,99.99
2018-09-25T07:57:15.467Z,99.99
2018-09-25T07:58:15.443Z,99.99
2018-09-25T07:59:15.423Z,99.99
2018-09-25T08:00:15.411Z,99.99
2018-09-25T08:01:15.378Z,99.99
2018-09-25T08:02:15.359Z,99.99
2018-09-25T08:03:15.434Z,99.99
2018-09-25T08:04:15.313Z,99.99
2018-09-25T08:05:15.292Z,99.99
2018-09-25T08:06:15.268Z,99.99
2018-09-25T08:07:15.248Z,99.99
2018-09-25T08:08:15.225Z,99.99
2018-09-25T08:09:15.203Z,99.99
2018-09-25T08:10:15.181Z,99.99
2018-09-25T08:11:15.161Z,99.99
2018-09-25T08:12:15.137Z,99.99
2018-09-25T08:13:15.117Z,99.32
2018-09-25T08:14:15.095Z,98.85
2018-09-25T08:15:15.086Z,98.56
2018-09-25T08:16:15.050Z,98.85
2018-09-25T08:17:15.044Z,99.41
2018-09-25T08:18:15.006Z,99.51
2018-09-25T08:19:14.985Z,99.51
2018-09-25T08:20:14.965Z,99.13
2018-09-25T08:21:14.945Z,98.46
2018-09-25T08:22:14.924Z,99.13
2018-09-25T08:23:14.902Z,98.94
2018-09-25T08:24:14.882Z,98.65
2018-09-25T08:25:14.858Z,99.22
2018-09-25T08:26:14.832Z,98.75
2018-09-25T08:27:14.812Z,99.18
2018-09-25T08:28:14.792Z,98.42
2018-09-25T08:29:14.768Z,98.32
2018-09-25T08:30:14.750Z,98.36
2018-09-25T08:31:14.726Z,99.27
2018-09-25T08:32:14.717Z,98.61
2018-09-25T08:33:14.699Z,97.94
2018-09-25T08:34:14.660Z,98.42
2018-09-25T08:35:14.638Z,99.46
2018-09-25T08:36:14.622Z,99.95
2018-09-25T08:37:14.596Z,99.99
2018-09-25T08:38:14.574Z,99.66
2018-09-25T08:39:14.649Z,98.90
2018-09-25T08:40:14.537Z,98.80
2018-09-25T08:41:14.508Z,99.08
2018-09-25T08:42:14.492Z,99.08
2018-09-25T08:43:14.465Z,98.42
2018-09-25T08:44:14.444Z,97.66
2018-09-25T08:45:14.426Z,96.89
2018-09-25T08:46:14.400Z,97.27
2018-09-25T08:47:14.381Z,96.32
2018-09-25T08:48:14.357Z,96.03
2018-09-25T08:49:14.335Z,96.80
2018-09-25T08:50:14.318Z,96.70
2018-09-25T08:51:14.294Z,96.32
2018-09-25T08:52:14.271Z,95.84
2018-09-25T08:53:14.250Z,96.13
2018-09-25T08:54:14.228Z,95.65
2018-09-25T08:55:14.207Z,95.56
2018-09-25T08:56:14.190Z,96.08
2018-09-25T08:57:14.164Z,96.32
2018-09-25T08:58:14.155Z,95.61
2018-09-25T08:59:14.124Z,96.17
2018-09-25T09:00:14.102Z,94.84
2018-09-25T09:01:14.080Z,94.84
2018-09-25T09:02:14.057Z,94.93
2018-09-25T09:03:14.043Z,95.89
2018-09-25T09:04:14.016Z,95.12
2018-09-25T09:05:13.999Z,94.56
2018-09-25T09:06:13.975Z,94.65
2018-09-25T09:07:13.959Z,93.70
2018-09-25T09:08:13.939Z,93.98
2018-09-25T09:09:13.928Z,94.36
2018-09-25T09:10:13.886Z,95.03
2018-09-25T09:11:13.866Z,94.56
2018-09-25T09:12:13.843Z,93.60
2018-09-25T09:13:13.840Z,93.79
2018-09-25T09:14:13.804Z,93.70
2018-09-25T09:15:13.780Z,93.12
2018-09-25T09:16:13.767Z,93.79
2018-09-25T09:17:13.738Z,93.41
2018-09-25T09:18:13.724Z,93.70
2018-09-25T09:19:13.696Z,94.27
2018-09-25T09:20:13.738Z,94.27
2018-09-25T09:21:13.655Z,94.31
2018-09-25T09:22:13.632Z,94.17
2018-09-25T09:23:13.612Z,93.79
2018-09-25T09:24:13.590Z,94.51
2018-09-25T09:25:13.616Z,93.65
2018-09-25T09:26:13.548Z,94.03
2018-09-25T09:27:13.565Z,94.31
2018-09-25T09:28:13.505Z,94.60
2018-09-25T09:29:13.486Z,94.41
2018-09-25T09:30:13.465Z,94.51
2018-09-25T09:31:13.452Z,94.60
2018-09-25T09:32:13.419Z,94.41
2018-09-25T09:33:13.401Z,94.22
2018-09-25T09:34:13.387Z,91.93
2018-09-25T09:35:13.359Z,91.07
2018-09-25T09:36:13.340Z,91.26
2018-09-25T09:37:13.317Z,91.07
2018-09-25T09:38:13.294Z,91.07
2018-09-25T09:39:13.273Z,90.97
2018-09-25T09:40:13.259Z,91.26
2018-09-25T09:41:13.249Z,91.93
2018-09-25T09:42:13.219Z,91.64
2018-09-25T09:43:13.193Z,90.78
2018-09-25T09:44:13.170Z,89.54
2018-09-25T09:45:13.148Z,88.30
2018-09-25T09:46:13.126Z,88.11
2018-09-25T09:47:13.110Z,87.25
2018-09-25T09:48:13.086Z,86.87
2018-09-25T09:49:13.066Z,87.15
2018-09-25T09:50:13.066Z,88.01
2018-09-25T09:51:13.035Z,88.30
2018-09-25T09:52:13.001Z,88.15
2018-09-25T09:53:12.982Z,88.49
2018-09-25T09:54:12.965Z,88.54
2018-09-25T09:55:12.938Z,86.43
2018-09-25T09:56:12.930Z,86.15
2018-09-25T09:57:12.896Z,86.72
2018-09-25T09:58:12.878Z,87.01
2018-09-25T09:59:12.856Z,87.39
2018-09-25T10:00:12.835Z,86.53
2018-09-25T10:01:12.815Z,86.43
2018-09-25T10:02:12.792Z,85.96
2018-09-25T10:03:12.793Z,85.96
2018-09-25T10:04:12.753Z,86.24
2018-09-25T10:05:12.731Z,85.77
2018-09-25T10:06:12.719Z,85.77
2018-09-25T10:07:12.800Z,85.86
2018-09-25T10:08:12.686Z,85.96
2018-09-25T10:09:12.648Z,87.48
2018-09-25T10:10:12.626Z,86.82
2018-09-25T10:11:12.607Z,86.34
2018-09-25T10:12:12.586Z,86.43
2018-09-25T10:13:12.564Z,85.38
2018-09-25T10:14:12.544Z,84.52
2018-09-25T10:15:12.523Z,84.14
2018-09-25T10:16:12.503Z,84.05
2018-09-25T10:17:12.484Z,83.47
2018-09-25T10:18:12.475Z,82.52
2018-09-25T10:19:12.445Z,82.42
2018-09-25T10:20:12.421Z,83.86
2018-09-25T10:21:12.400Z,84.38
2018-09-25T10:22:12.379Z,84.19
2018-09-25T10:23:12.357Z,83.13
2018-09-25T10:24:12.338Z,82.28
2018-09-25T10:25:12.318Z,82.94
2018-09-25T10:26:12.296Z,84.47
2018-09-25T10:27:12.304Z,84.56
2018-09-25T10:28:12.260Z,83.99
2018-09-25T10:29:12.236Z,83.13
2018-09-25T10:30:12.219Z,81.60
2018-09-25T10:31:12.198Z,82.65
2018-09-25T10:32:12.175Z,82.94
2018-09-25T10:33:12.154Z,82.75
2018-09-25T10:34:12.196Z,81.70
2018-09-25T10:35:12.112Z,80.84
2018-09-25T10:36:12.094Z,80.36
2018-09-25T10:37:12.073Z,80.84
2018-09-25T10:38:12.053Z,81.99
2018-09-25T10:39:12.033Z,82.70
2018-09-25T10:40:12.017Z,82.60
2018-09-25T10:41:11.991Z,82.98
2018-09-25T10:42:11.983Z,83.94
2018-09-25T10:43:11.956Z,82.22
2018-09-25T10:44:11.935Z,81.26
2018-09-25T10:45:11.919Z,81.93
2018-09-25T10:46:11.890Z,80.98
2018-09-25T10:47:11.870Z,81.84
2018-09-25T10:48:11.848Z,82.18
2018-09-25T10:49:11.834Z,81.93
2018-09-25T10:50:11.815Z,78.87
2018-09-25T10:51:11.788Z,78.58
2018-09-25T10:52:11.770Z,78.68
2018-09-25T10:53:11.748Z,79.16
2018-09-25T10:54:11.728Z,78.64
2018-09-25T10:55:11.709Z,78.39
2018-09-25T10:56:11.775Z,77.25
2018-09-25T10:57:11.679Z,78.30
2018-09-25T10:58:11.649Z,77.34
2018-09-25T10:59:11.634Z,77.72
2018-09-25T11:00:11.610Z,78.30
2018-09-25T11:01:11.588Z,78.83
2018-09-25T11:02:11.566Z,79.22
2018-09-25T11:03:11.676Z,79.69
2018-09-25T11:04:11.529Z,77.40
2018-09-25T11:05:11.509Z,76.54
2018-09-25T11:06:11.488Z,76.67
2018-09-25T11:07:11.471Z,77.44
2018-09-25T11:08:11.454Z,76.25
2018-09-25T11:09:11.426Z,75.68
2018-09-25T11:10:11.475Z,75.62
2018-09-25T11:11:11.389Z,76.54
2018-09-25T11:12:11.452Z,76.29
2018-09-25T11:13:11.351Z,76.77
2018-09-25T11:14:11.329Z,74.95
2018-09-25T11:15:11.310Z,74.28
2018-09-25T11:16:11.287Z,75.49
2018-09-25T11:17:11.266Z,77.25
2018-09-25T11:18:11.250Z,77.72
2018-09-25T11:19:11.234Z,78.20
2018-09-25T11:20:11.208Z,78.30
2018-09-25T11:21:11.189Z,78.87
2018-09-25T11:22:11.170Z,79.93
2018-09-25T11:23:11.145Z,80.79
2018-09-25T11:24:11.127Z,82.41
2018-09-25T11:25:11.137Z,79.16
2018-09-25T11:26:11.089Z,78.68
2018-09-25T11:27:11.073Z,78.87
2018-09-25T11:28:11.047Z,78.78
2018-09-25T11:29:11.029Z,78.97
2018-09-25T11:30:11.029Z,78.78
2018-09-25T11:31:11.001Z,78.39
2018-09-25T11:32:10.984Z,78.11
2018-09-25T11:33:10.954Z,78.39
2018-09-25T11:34:10.927Z,78.49
2018-09-25T11:35:10.951Z,78.49
2018-09-25T11:36:10.892Z,79.16
2018-09-25T11:37:10.875Z,79.06
2018-09-25T11:38:10.851Z,79.25
2018-09-25T11:39:10.826Z,81.93
2018-09-25T11:40:10.809Z,81.74
2018-09-25T11:41:10.832Z,80.88
2018-09-25T11:42:10.771Z,79.64
2018-09-25T11:43:10.750Z,80.11
2018-09-25T11:44:10.736Z,79.06
2018-09-25T11:45:10.710Z,77.92
2018-09-25T11:46:10.690Z,76.48
2018-09-25T11:47:10.695Z,75.81
2018-09-25T11:48:10.649Z,76.57
2018-09-25T11:49:10.629Z,77.34
2018-09-25T11:50:10.613Z,77.63
2018-09-25T11:51:10.597Z,79.64
2018-09-25T11:52:10.573Z,78.58
2018-09-25T11:53:10.551Z,78.49
2018-09-25T11:54:10.530Z,79.35
2018-09-25T11:55:10.511Z,81.16
2018-09-25T11:56:10.526Z,80.69
2018-09-25T11:57:10.472Z,81.74
2018-09-25T11:58:10.452Z,81.26
2018-09-25T11:59:10.433Z,80.98
2018-09-25T12:00:10.413Z,80.79
2018-09-25T12:01:10.395Z,79.64
2018-09-25T12:02:10.426Z,78.97
2018-09-25T12:03:10.353Z,78.39
2018-09-25T12:04:10.335Z,78.14
2018-09-25T12:05:10.313Z,78.53
2018-09-25T12:06:10.294Z,78.81
2018-09-25T12:07:10.275Z,78.81
2018-09-25T12:08:10.258Z,79.29
2018-09-25T12:09:10.236Z,78.05
2018-09-25T12:10:10.216Z,77.48
2018-09-25T12:11:10.198Z,76.23
2018-09-25T12:12:10.176Z,75.85
2018-09-25T12:13:10.156Z,76.71
2018-09-25T12:14:10.140Z,76.62
2018-09-25T12:15:10.116Z,76.81
2018-09-25T12:16:10.097Z,77.00
2018-09-25T12:17:10.082Z,76.81
2018-09-25T12:18:10.057Z,75.27
2018-09-25T12:19:10.058Z,73.94
2018-09-25T12:20:10.019Z,74.22
2018-09-25T12:21:09.999Z,73.46
2018-09-25T12:22:09.979Z,73.27
2018-09-25T12:23:09.966Z,72.22
2018-09-25T12:24:09.944Z,72.22
2018-09-25T12:25:09.919Z,72.88
2018-09-25T12:26:09.900Z,73.94
2018-09-25T12:27:09.884Z,73.88
2018-09-25T12:28:09.868Z,71.48
2018-09-25T12:29:09.844Z,71.58
2018-09-25T12:30:09.822Z,71.48
2018-09-25T12:31:09.803Z,71.68
2018-09-25T12:32:09.791Z,70.81
2018-09-25T12:33:09.766Z,70.24
2018-09-25T12:34:09.750Z,70.91
2018-09-25T12:35:09.727Z,70.53
2018-09-25T12:36:09.712Z,70.15
2018-09-25T12:37:09.688Z,70.34
2018-09-25T12:38:09.672Z,70.34
2018-09-25T12:39:09.680Z,70.62
2018-09-25T12:40:09.633Z,70.15
2018-09-25T12:41:09.607Z,70.05
2018-09-25T12:42:09.599Z,70.15
2018-09-25T12:43:09.569Z,70.62
2018-09-25T12:44:09.554Z,69.76
2018-09-25T12:45:09.533Z,70.15
2018-09-25T12:46:09.511Z,71.01
2018-09-25T12:47:09.493Z,70.91
2018-09-25T12:48:09.474Z,69.19
2018-09-25T12:49:09.456Z,68.13
2018-09-25T12:50:09.433Z,67.85
2018-09-25T12:51:09.415Z,67.18
2018-09-25T12:52:09.401Z,66.61